sensor_id;sensor_type;location;lat;lon;timestamp;P1;durP1;ratioP1;P2;durP2;ratioP2
59974;SDS011;62136;-35.664;-63.766;2023-08-08T00:01:49;4.97;;;1.55;;
59974;SDS011;62136;-35.664;-63.766;2023-08-08T00:04:16;3.42;;;1.05;;
59974;SDS011;62136;-35.664;-63.766;2023-08-08T00:06:43;4.18;;;1.55;;
59974;SDS011;62136;-35.664;-63.766;2023-08-08T00:09:10;5.38;;;1.70;;
59974;SDS011;62136;-35.664;-63.766;2023-08-08T00:11:37;5.82;;;1.70;;
59974;SDS011;62136;-35.664;-63.766;2023-08-08T00:14:04;7.18;;;1.80;;
59974;SDS011;62136;-35.664;-63.766;2023-08-08T00:16:31;7.93;;;2.33;;
59974;SDS011;62136;-35.664;-63.766;2023-08-08T00:18:58;13.40;;;2.80;;
59974;SDS011;62136;-35.664;-63.766;2023-08-08T00:21:25;12.40;;;2.47;;
59974;SDS011;62136;-35.664;-63.766;2023-08-08T00:26:18;11.75;;;2.40;;
59974;SDS011;62136;-35.664;-63.766;2023-08-08T00:28:45;6.50;;;2.20;;
59974;SDS011;62136;-35.664;-63.766;2023-08-08T00:31:12;9.48;;;2.28;;
59974;SDS011;62136;-35.664;-63.766;2023-08-08T00:33:42;6.63;;;2.22;;
59974;SDS011;62136;-35.664;-63.766;2023-08-08T00:36:09;10.75;;;2.53;;
59974;SDS011;62136;-35.664;-63.766;2023-08-08T00:38:36;15.27;;;2.42;;
59974;SDS011;62136;-35.664;-63.766;2023-08-08T00:41:03;13.52;;;3.28;;
59974;SDS011;62136;-35.664;-63.766;2023-08-08T00:43:33;14.25;;;2.80;;
59974;SDS011;62136;-35.664;-63.766;2023-08-08T00:46:00;12.88;;;3.08;;
59974;SDS011;62136;-35.664;-63.766;2023-08-08T00:48:30;13.57;;;3.65;;
59974;SDS011;62136;-35.664;-63.766;2023-08-08T00:50:57;9.10;;;2.78;;
59974;SDS011;62136;-35.664;-63.766;2023-08-08T00:53:25;14.98;;;3.08;;
59974;SDS011;62136;-35.664;-63.766;2023-08-08T00:55:57;9.90;;;2.67;;
59974;SDS011;62136;-35.664;-63.766;2023-08-08T00:58:25;5.65;;;2.30;;
59974;SDS011;62136;-35.664;-63.766;2023-08-08T01:00:53;11.65;;;3.30;;
59974;SDS011;62136;-35.664;-63.766;2023-08-08T01:03:23;7.60;;;2.53;;
59974;SDS011;62136;-35.664;-63.766;2023-08-08T01:06:01;10.00;;;2.95;;
59974;SDS011;62136;-35.664;-63.766;2023-08-08T01:08:32;7.05;;;2.45;;
59974;SDS011;62136;-35.664;-63.766;2023-08-08T01:11:05;9.73;;;2.67;;
59974;SDS011;62136;-35.664;-63.766;2023-08-08T01:13:32;9.75;;;2.97;;
59974;SDS011;62136;-35.664;-63.766;2023-08-08T01:15:59;9.18;;;2.65;;
59974;SDS011;62136;-35.664;-63.766;2023-08-08T01:18:31;15.70;;;3.15;;
59974;SDS011;62136;-35.664;-63.766;2023-08-08T01:23:52;9.43;;;2.30;;
59974;SDS011;62136;-35.664;-63.766;2023-08-08T01:26:26;9.93;;;3.10;;
59974;SDS011;62136;-35.664;-63.766;2023-08-08T01:28:54;4.78;;;2.05;;
59974;SDS011;62136;-35.664;-63.766;2023-08-08T01:31:21;9.32;;;2.63;;
59974;SDS011;62136;-35.664;-63.766;2023-08-08T01:33:48;7.60;;;2.60;;
59974;SDS011;62136;-35.664;-63.766;2023-08-08T01:36:20;9.27;;;2.63;;
59974;SDS011;62136;-35.664;-63.766;2023-08-08T01:38:53;8.05;;;2.25;;
59974;SDS011;62136;-35.664;-63.766;2023-08-08T01:41:32;8.10;;;2.13;;
59974;SDS011;62136;-35.664;-63.766;2023-08-08T01:44:00;5.13;;;1.65;;
59974;SDS011;62136;-35.664;-63.766;2023-08-08T01:46:28;11.27;;;2.80;;
59974;SDS011;62136;-35.664;-63.766;2023-08-08T01:48:57;5.13;;;2.42;;
59974;SDS011;62136;-35.664;-63.766;2023-08-08T01:51:25;5.53;;;2.03;;
59974;SDS011;62136;-35.664;-63.766;2023-08-08T01:53:53;6.78;;;2.20;;
59974;SDS011;62136;-35.664;-63.766;2023-08-08T01:56:19;6.43;;;2.33;;
59974;SDS011;62136;-35.664;-63.766;2023-08-08T01:58:46;6.13;;;2.35;;
59974;SDS011;62136;-35.664;-63.766;2023-08-08T02:01:13;6.28;;;1.92;;
59974;SDS011;62136;-35.664;-63.766;2023-08-08T02:03:40;6.50;;;2.05;;
59974;SDS011;62136;-35.664;-63.766;2023-08-08T02:06:08;5.80;;;2.35;;
59974;SDS011;62136;-35.664;-63.766;2023-08-08T02:08:35;5.57;;;2.33;;
59974;SDS011;62136;-35.664;-63.766;2023-08-08T02:11:02;6.38;;;2.28;;
59974;SDS011;62136;-35.664;-63.766;2023-08-08T02:13:29;4.88;;;2.00;;
59974;SDS011;62136;-35.664;-63.766;2023-08-08T02:15:56;4.78;;;2.20;;
59974;SDS011;62136;-35.664;-63.766;2023-08-08T02:18:23;6.30;;;2.28;;
59974;SDS011;62136;-35.664;-63.766;2023-08-08T02:20:50;8.15;;;2.30;;
59974;SDS011;62136;-35.664;-63.766;2023-08-08T02:23:20;7.97;;;1.98;;
59974;SDS011;62136;-35.664;-63.766;2023-08-08T02:25:47;4.35;;;1.98;;
59974;SDS011;62136;-35.664;-63.766;2023-08-08T02:28:13;4.82;;;1.70;;
59974;SDS011;62136;-35.664;-63.766;2023-08-08T02:30:40;4.88;;;1.90;;
59974;SDS011;62136;-35.664;-63.766;2023-08-08T02:33:07;5.13;;;2.10;;
59974;SDS011;62136;-35.664;-63.766;2023-08-08T02:35:36;5.13;;;1.83;;
59974;SDS011;62136;-35.664;-63.766;2023-08-08T02:38:03;5.00;;;1.80;;
59974;SDS011;62136;-35.664;-63.766;2023-08-08T02:40:30;4.65;;;2.10;;
59974;SDS011;62136;-35.664;-63.766;2023-08-08T02:42:58;4.75;;;1.83;;
59974;SDS011;62136;-35.664;-63.766;2023-08-08T02:45:25;5.00;;;1.83;;
59974;SDS011;62136;-35.664;-63.766;2023-08-08T02:47:52;4.60;;;1.90;;
59974;SDS011;62136;-35.664;-63.766;2023-08-08T02:50:19;6.32;;;1.98;;
59974;SDS011;62136;-35.664;-63.766;2023-08-08T02:52:46;4.43;;;1.70;;
59974;SDS011;62136;-35.664;-63.766;2023-08-08T02:55:14;4.57;;;1.70;;
59974;SDS011;62136;-35.664;-63.766;2023-08-08T02:57:41;3.95;;;1.55;;
59974;SDS011;62136;-35.664;-63.766;2023-08-08T03:00:08;5.60;;;1.80;;
59974;SDS011;62136;-35.664;-63.766;2023-08-08T03:02:36;4.05;;;1.92;;
59974;SDS011;62136;-35.664;-63.766;2023-08-08T03:05:03;3.55;;;1.83;;
59974;SDS011;62136;-35.664;-63.766;2023-08-08T03:07:31;5.65;;;1.80;;
59974;SDS011;62136;-35.664;-63.766;2023-08-08T03:09:58;5.40;;;2.13;;
59974;SDS011;62136;-35.664;-63.766;2023-08-08T03:12:25;2.90;;;1.45;;
59974;SDS011;62136;-35.664;-63.766;2023-08-08T03:14:52;3.83;;;2.13;;
59974;SDS011;62136;-35.664;-63.766;2023-08-08T03:17:19;3.80;;;2.10;;
59974;SDS011;62136;-35.664;-63.766;2023-08-08T03:19:46;5.88;;;1.95;;
59974;SDS011;62136;-35.664;-63.766;2023-08-08T03:22:13;5.13;;;2.10;;
59974;SDS011;62136;-35.664;-63.766;2023-08-08T03:24:40;4.25;;;2.17;;
59974;SDS011;62136;-35.664;-63.766;2023-08-08T03:27:07;4.05;;;1.80;;
59974;SDS011;62136;-35.664;-63.766;2023-08-08T03:29:34;4.40;;;1.58;;
59974;SDS011;62136;-35.664;-63.766;2023-08-08T03:32:02;4.03;;;2.08;;
59974;SDS011;62136;-35.664;-63.766;2023-08-08T03:34:29;4.93;;;1.90;;
59974;SDS011;62136;-35.664;-63.766;2023-08-08T03:36:56;3.35;;;2.10;;
59974;SDS011;62136;-35.664;-63.766;2023-08-08T03:39:23;3.38;;;1.80;;
59974;SDS011;62136;-35.664;-63.766;2023-08-08T03:41:50;5.40;;;2.78;;
59974;SDS011;62136;-35.664;-63.766;2023-08-08T03:44:17;5.38;;;1.83;;
59974;SDS011;62136;-35.664;-63.766;2023-08-08T03:46:44;4.03;;;1.85;;
59974;SDS011;62136;-35.664;-63.766;2023-08-08T03:49:11;4.78;;;2.13;;
59974;SDS011;62136;-35.664;-63.766;2023-08-08T03:51:38;3.65;;;2.40;;
59974;SDS011;62136;-35.664;-63.766;2023-08-08T03:54:05;5.53;;;1.85;;
59974;SDS011;62136;-35.664;-63.766;2023-08-08T03:56:32;4.88;;;2.08;;
59974;SDS011;62136;-35.664;-63.766;2023-08-08T03:58:59;4.05;;;2.25;;
59974;SDS011;62136;-35.664;-63.766;2023-08-08T04:01:26;5.00;;;2.05;;
59974;SDS011;62136;-35.664;-63.766;2023-08-08T04:03:53;6.45;;;2.50;;
59974;SDS011;62136;-35.664;-63.766;2023-08-08T04:06:20;4.47;;;2.10;;
59974;SDS011;62136;-35.664;-63.766;2023-08-08T04:08:47;4.15;;;2.05;;
59974;SDS011;62136;-35.664;-63.766;2023-08-08T04:11:14;4.43;;;1.90;;
59974;SDS011;62136;-35.664;-63.766;2023-08-08T04:13:41;3.03;;;2.10;;
59974;SDS011;62136;-35.664;-63.766;2023-08-08T04:16:08;5.03;;;2.15;;
59974;SDS011;62136;-35.664;-63.766;2023-08-08T04:18:35;4.60;;;2.13;;
59974;SDS011;62136;-35.664;-63.766;2023-08-08T04:21:02;3.63;;;1.88;;
59974;SDS011;62136;-35.664;-63.766;2023-08-08T04:23:50;3.63;;;2.30;;
59974;SDS011;62136;-35.664;-63.766;2023-08-08T04:26:17;2.95;;;2.22;;
59974;SDS011;62136;-35.664;-63.766;2023-08-08T04:28:44;6.10;;;2.47;;
59974;SDS011;62136;-35.664;-63.766;2023-08-08T04:31:11;7.90;;;2.40;;
59974;SDS011;62136;-35.664;-63.766;2023-08-08T04:33:39;5.45;;;2.08;;
59974;SDS011;62136;-35.664;-63.766;2023-08-08T04:36:06;3.80;;;1.98;;
59974;SDS011;62136;-35.664;-63.766;2023-08-08T04:38:33;3.80;;;2.00;;
59974;SDS011;62136;-35.664;-63.766;2023-08-08T04:41:00;4.53;;;2.40;;
59974;SDS011;62136;-35.664;-63.766;2023-08-08T04:43:27;3.63;;;2.08;;
59974;SDS011;62136;-35.664;-63.766;2023-08-08T04:45:54;5.93;;;2.30;;
59974;SDS011;62136;-35.664;-63.766;2023-08-08T04:48:20;4.22;;;2.08;;
59974;SDS011;62136;-35.664;-63.766;2023-08-08T04:50:47;3.63;;;2.05;;
59974;SDS011;62136;-35.664;-63.766;2023-08-08T04:53:14;3.88;;;2.10;;
59974;SDS011;62136;-35.664;-63.766;2023-08-08T04:55:41;4.32;;;2.38;;
59974;SDS011;62136;-35.664;-63.766;2023-08-08T04:58:08;4.85;;;2.38;;
59974;SDS011;62136;-35.664;-63.766;2023-08-08T05:00:35;6.07;;;2.40;;
59974;SDS011;62136;-35.664;-63.766;2023-08-08T05:03:02;3.85;;;2.28;;
59974;SDS011;62136;-35.664;-63.766;2023-08-08T05:05:29;5.63;;;2.75;;
59974;SDS011;62136;-35.664;-63.766;2023-08-08T05:07:56;4.43;;;2.35;;
59974;SDS011;62136;-35.664;-63.766;2023-08-08T05:10:23;6.20;;;2.30;;
59974;SDS011;62136;-35.664;-63.766;2023-08-08T05:12:50;4.75;;;2.55;;
59974;SDS011;62136;-35.664;-63.766;2023-08-08T05:15:17;4.63;;;2.22;;
59974;SDS011;62136;-35.664;-63.766;2023-08-08T05:17:44;3.25;;;2.15;;
59974;SDS011;62136;-35.664;-63.766;2023-08-08T05:20:11;5.25;;;2.60;;
59974;SDS011;62136;-35.664;-63.766;2023-08-08T05:22:38;4.50;;;2.20;;
59974;SDS011;62136;-35.664;-63.766;2023-08-08T05:25:05;3.65;;;2.47;;
59974;SDS011;62136;-35.664;-63.766;2023-08-08T05:27:32;4.07;;;2.03;;
59974;SDS011;62136;-35.664;-63.766;2023-08-08T05:30:00;4.65;;;2.35;;
59974;SDS011;62136;-35.664;-63.766;2023-08-08T05:32:27;5.15;;;2.60;;
59974;SDS011;62136;-35.664;-63.766;2023-08-08T05:34:54;6.30;;;2.67;;
59974;SDS011;62136;-35.664;-63.766;2023-08-08T05:37:23;4.15;;;2.15;;
59974;SDS011;62136;-35.664;-63.766;2023-08-08T05:39:50;5.65;;;2.35;;
59974;SDS011;62136;-35.664;-63.766;2023-08-08T05:42:18;4.15;;;2.55;;
59974;SDS011;62136;-35.664;-63.766;2023-08-08T05:44:45;4.40;;;2.25;;
59974;SDS011;62136;-35.664;-63.766;2023-08-08T05:47:11;4.15;;;2.20;;
59974;SDS011;62136;-35.664;-63.766;2023-08-08T05:49:38;4.55;;;2.22;;
59974;SDS011;62136;-35.664;-63.766;2023-08-08T05:52:08;4.97;;;2.38;;
59974;SDS011;62136;-35.664;-63.766;2023-08-08T05:54:35;4.45;;;2.33;;
59974;SDS011;62136;-35.664;-63.766;2023-08-08T05:57:02;5.00;;;2.40;;
59974;SDS011;62136;-35.664;-63.766;2023-08-08T05:59:30;6.32;;;2.65;;
59974;SDS011;62136;-35.664;-63.766;2023-08-08T06:01:57;3.17;;;2.13;;
59974;SDS011;62136;-35.664;-63.766;2023-08-08T06:04:24;4.00;;;2.30;;
59974;SDS011;62136;-35.664;-63.766;2023-08-08T06:06:51;6.78;;;2.20;;
59974;SDS011;62136;-35.664;-63.766;2023-08-08T06:09:18;4.55;;;2.28;;
59974;SDS011;62136;-35.664;-63.766;2023-08-08T06:11:45;4.63;;;2.22;;
59974;SDS011;62136;-35.664;-63.766;2023-08-08T06:14:12;5.07;;;2.38;;
59974;SDS011;62136;-35.664;-63.766;2023-08-08T06:16:39;4.75;;;2.33;;
59974;SDS011;62136;-35.664;-63.766;2023-08-08T06:19:07;3.85;;;2.10;;
59974;SDS011;62136;-35.664;-63.766;2023-08-08T06:21:35;3.70;;;2.35;;
59974;SDS011;62136;-35.664;-63.766;2023-08-08T06:24:02;4.90;;;2.35;;
59974;SDS011;62136;-35.664;-63.766;2023-08-08T06:26:29;3.78;;;2.00;;
59974;SDS011;62136;-35.664;-63.766;2023-08-08T06:28:56;5.18;;;2.45;;
59974;SDS011;62136;-35.664;-63.766;2023-08-08T06:31:23;3.08;;;1.63;;
59974;SDS011;62136;-35.664;-63.766;2023-08-08T06:33:50;3.13;;;1.92;;
59974;SDS011;62136;-35.664;-63.766;2023-08-08T06:36:17;5.10;;;2.22;;
59974;SDS011;62136;-35.664;-63.766;2023-08-08T06:38:43;5.00;;;2.08;;
59974;SDS011;62136;-35.664;-63.766;2023-08-08T06:41:10;5.65;;;2.03;;
59974;SDS011;62136;-35.664;-63.766;2023-08-08T06:43:38;5.20;;;2.13;;
59974;SDS011;62136;-35.664;-63.766;2023-08-08T06:46:05;4.47;;;1.92;;
59974;SDS011;62136;-35.664;-63.766;2023-08-08T06:48:32;4.15;;;2.00;;
59974;SDS011;62136;-35.664;-63.766;2023-08-08T06:50:59;3.83;;;1.90;;
59974;SDS011;62136;-35.664;-63.766;2023-08-08T06:53:26;4.53;;;2.50;;
59974;SDS011;62136;-35.664;-63.766;2023-08-08T06:55:53;3.90;;;2.30;;
59974;SDS011;62136;-35.664;-63.766;2023-08-08T06:58:20;4.30;;;2.05;;
59974;SDS011;62136;-35.664;-63.766;2023-08-08T07:00:48;4.90;;;2.25;;
59974;SDS011;62136;-35.664;-63.766;2023-08-08T07:03:16;3.80;;;2.00;;
59974;SDS011;62136;-35.664;-63.766;2023-08-08T07:05:43;3.45;;;2.00;;
59974;SDS011;62136;-35.664;-63.766;2023-08-08T07:08:11;3.72;;;1.88;;
59974;SDS011;62136;-35.664;-63.766;2023-08-08T07:10:38;3.40;;;2.17;;
59974;SDS011;62136;-35.664;-63.766;2023-08-08T07:13:05;3.38;;;1.83;;
59974;SDS011;62136;-35.664;-63.766;2023-08-08T07:15:32;5.68;;;1.70;;
59974;SDS011;62136;-35.664;-63.766;2023-08-08T07:17:59;3.63;;;1.73;;
59974;SDS011;62136;-35.664;-63.766;2023-08-08T07:20:26;4.18;;;1.85;;
59974;SDS011;62136;-35.664;-63.766;2023-08-08T07:22:54;5.07;;;2.03;;
59974;SDS011;62136;-35.664;-63.766;2023-08-08T07:25:22;3.78;;;1.80;;
59974;SDS011;62136;-35.664;-63.766;2023-08-08T07:27:49;3.15;;;1.67;;
59974;SDS011;62136;-35.664;-63.766;2023-08-08T07:30:16;2.75;;;1.88;;
59974;SDS011;62136;-35.664;-63.766;2023-08-08T07:32:43;3.30;;;1.73;;
59974;SDS011;62136;-35.664;-63.766;2023-08-08T07:35:10;3.42;;;1.50;;
59974;SDS011;62136;-35.664;-63.766;2023-08-08T07:37:37;4.97;;;2.00;;
59974;SDS011;62136;-35.664;-63.766;2023-08-08T07:40:14;3.63;;;2.10;;
59974;SDS011;62136;-35.664;-63.766;2023-08-08T07:42:45;3.30;;;1.85;;
59974;SDS011;62136;-35.664;-63.766;2023-08-08T07:45:12;5.10;;;2.08;;
59974;SDS011;62136;-35.664;-63.766;2023-08-08T07:47:39;5.45;;;2.22;;
59974;SDS011;62136;-35.664;-63.766;2023-08-08T07:50:07;5.47;;;2.15;;
59974;SDS011;62136;-35.664;-63.766;2023-08-08T07:52:35;3.75;;;1.80;;
59974;SDS011;62136;-35.664;-63.766;2023-08-08T07:55:03;3.78;;;2.05;;
59974;SDS011;62136;-35.664;-63.766;2023-08-08T07:57:31;4.07;;;2.17;;
59974;SDS011;62136;-35.664;-63.766;2023-08-08T08:00:02;3.67;;;1.88;;
59974;SDS011;62136;-35.664;-63.766;2023-08-08T08:02:48;4.93;;;2.00;;
59974;SDS011;62136;-35.664;-63.766;2023-08-08T08:05:15;3.50;;;1.90;;
59974;SDS011;62136;-35.664;-63.766;2023-08-08T08:07:43;3.95;;;2.00;;
59974;SDS011;62136;-35.664;-63.766;2023-08-08T08:10:11;4.07;;;2.17;;
59974;SDS011;62136;-35.664;-63.766;2023-08-08T08:12:39;3.45;;;2.20;;
59974;SDS011;62136;-35.664;-63.766;2023-08-08T08:15:07;5.38;;;2.35;;
59974;SDS011;62136;-35.664;-63.766;2023-08-08T08:17:35;3.50;;;1.75;;
59974;SDS011;62136;-35.664;-63.766;2023-08-08T08:20:02;3.55;;;2.05;;
59974;SDS011;62136;-35.664;-63.766;2023-08-08T08:22:36;4.10;;;1.90;;
59974;SDS011;62136;-35.664;-63.766;2023-08-08T08:25:04;3.83;;;2.00;;
59974;SDS011;62136;-35.664;-63.766;2023-08-08T08:27:37;4.88;;;2.10;;
59974;SDS011;62136;-35.664;-63.766;2023-08-08T08:30:04;4.80;;;2.10;;
59974;SDS011;62136;-35.664;-63.766;2023-08-08T08:32:34;4.90;;;1.92;;
59974;SDS011;62136;-35.664;-63.766;2023-08-08T08:35:05;3.60;;;1.77;;
59974;SDS011;62136;-35.664;-63.766;2023-08-08T08:37:33;3.85;;;1.98;;
59974;SDS011;62136;-35.664;-63.766;2023-08-08T08:40:00;5.05;;;2.22;;
59974;SDS011;62136;-35.664;-63.766;2023-08-08T08:42:30;3.15;;;2.10;;
59974;SDS011;62136;-35.664;-63.766;2023-08-08T08:44:59;3.25;;;2.17;;
59974;SDS011;62136;-35.664;-63.766;2023-08-08T08:47:30;3.53;;;2.10;;
59974;SDS011;62136;-35.664;-63.766;2023-08-08T08:49:58;3.47;;;1.92;;
59974;SDS011;62136;-35.664;-63.766;2023-08-08T08:52:28;4.38;;;2.28;;
59974;SDS011;62136;-35.664;-63.766;2023-08-08T08:54:56;6.38;;;2.50;;
59974;SDS011;62136;-35.664;-63.766;2023-08-08T08:57:24;3.30;;;2.20;;
59974;SDS011;62136;-35.664;-63.766;2023-08-08T08:59:51;3.17;;;2.17;;
59974;SDS011;62136;-35.664;-63.766;2023-08-08T09:02:18;3.20;;;1.85;;
59974;SDS011;62136;-35.664;-63.766;2023-08-08T09:04:46;3.80;;;2.40;;
59974;SDS011;62136;-35.664;-63.766;2023-08-08T09:07:13;3.97;;;1.83;;
59974;SDS011;62136;-35.664;-63.766;2023-08-08T09:09:43;4.55;;;2.50;;
59974;SDS011;62136;-35.664;-63.766;2023-08-08T09:12:10;4.13;;;2.22;;
59974;SDS011;62136;-35.664;-63.766;2023-08-08T09:14:41;4.00;;;1.95;;
59974;SDS011;62136;-35.664;-63.766;2023-08-08T09:17:11;4.38;;;2.25;;
59974;SDS011;62136;-35.664;-63.766;2023-08-08T09:19:45;3.72;;;2.17;;
59974;SDS011;62136;-35.664;-63.766;2023-08-08T09:22:12;5.35;;;2.22;;
59974;SDS011;62136;-35.664;-63.766;2023-08-08T09:24:40;3.90;;;1.90;;
59974;SDS011;62136;-35.664;-63.766;2023-08-08T09:27:07;4.85;;;2.10;;
59974;SDS011;62136;-35.664;-63.766;2023-08-08T09:29:35;4.15;;;2.38;;
59974;SDS011;62136;-35.664;-63.766;2023-08-08T09:32:03;3.33;;;1.92;;
59974;SDS011;62136;-35.664;-63.766;2023-08-08T09:34:31;3.72;;;1.90;;
59974;SDS011;62136;-35.664;-63.766;2023-08-08T09:36:59;4.05;;;2.08;;
59974;SDS011;62136;-35.664;-63.766;2023-08-08T09:39:27;3.33;;;1.98;;
59974;SDS011;62136;-35.664;-63.766;2023-08-08T09:41:57;4.00;;;2.00;;
59974;SDS011;62136;-35.664;-63.766;2023-08-08T09:44:25;3.65;;;2.70;;
59974;SDS011;62136;-35.664;-63.766;2023-08-08T09:46:55;3.20;;;1.80;;
59974;SDS011;62136;-35.664;-63.766;2023-08-08T09:49:23;4.35;;;2.38;;
59974;SDS011;62136;-35.664;-63.766;2023-08-08T09:51:50;4.13;;;2.38;;
59974;SDS011;62136;-35.664;-63.766;2023-08-08T09:54:17;3.28;;;1.92;;
59974;SDS011;62136;-35.664;-63.766;2023-08-08T09:56:44;3.63;;;1.98;;
59974;SDS011;62136;-35.664;-63.766;2023-08-08T09:59:11;4.50;;;2.25;;
59974;SDS011;62136;-35.664;-63.766;2023-08-08T10:01:40;4.40;;;2.17;;
59974;SDS011;62136;-35.664;-63.766;2023-08-08T10:04:08;4.07;;;2.30;;
59974;SDS011;62136;-35.664;-63.766;2023-08-08T10:06:35;3.13;;;1.70;;
59974;SDS011;62136;-35.664;-63.766;2023-08-08T10:09:02;3.63;;;2.00;;
59974;SDS011;62136;-35.664;-63.766;2023-08-08T10:11:30;5.78;;;1.75;;
59974;SDS011;62136;-35.664;-63.766;2023-08-08T10:14:00;2.97;;;2.05;;
59974;SDS011;62136;-35.664;-63.766;2023-08-08T10:16:31;3.67;;;1.95;;
59974;SDS011;62136;-35.664;-63.766;2023-08-08T10:18:59;3.33;;;2.05;;
59974;SDS011;62136;-35.664;-63.766;2023-08-08T10:21:34;5.30;;;2.47;;
59974;SDS011;62136;-35.664;-63.766;2023-08-08T10:24:03;3.45;;;1.90;;
59974;SDS011;62136;-35.664;-63.766;2023-08-08T10:26:32;3.85;;;2.10;;
59974;SDS011;62136;-35.664;-63.766;2023-08-08T10:29:00;6.70;;;1.95;;
59974;SDS011;62136;-35.664;-63.766;2023-08-08T10:31:27;6.05;;;1.98;;
59974;SDS011;62136;-35.664;-63.766;2023-08-08T10:34:03;5.78;;;2.33;;
59974;SDS011;62136;-35.664;-63.766;2023-08-08T10:36:48;4.28;;;1.85;;
59974;SDS011;62136;-35.664;-63.766;2023-08-08T10:39:17;3.60;;;1.75;;
59974;SDS011;62136;-35.664;-63.766;2023-08-08T10:41:47;4.60;;;2.20;;
59974;SDS011;62136;-35.664;-63.766;2023-08-08T10:44:22;2.38;;;1.70;;
59974;SDS011;62136;-35.664;-63.766;2023-08-08T10:46:50;3.35;;;2.15;;
59974;SDS011;62136;-35.664;-63.766;2023-08-08T10:49:21;3.35;;;1.58;;
59974;SDS011;62136;-35.664;-63.766;2023-08-08T10:51:49;4.25;;;1.83;;
59974;SDS011;62136;-35.664;-63.766;2023-08-08T10:54:24;3.53;;;1.92;;
59974;SDS011;62136;-35.664;-63.766;2023-08-08T10:56:58;4.00;;;1.92;;
59974;SDS011;62136;-35.664;-63.766;2023-08-08T10:59:26;3.67;;;1.90;;
59974;SDS011;62136;-35.664;-63.766;2023-08-08T11:02:02;3.85;;;1.80;;
59974;SDS011;62136;-35.664;-63.766;2023-08-08T11:04:29;3.13;;;1.83;;
59974;SDS011;62136;-35.664;-63.766;2023-08-08T11:06:58;3.40;;;1.95;;
59974;SDS011;62136;-35.664;-63.766;2023-08-08T11:09:25;4.60;;;2.17;;
59974;SDS011;62136;-35.664;-63.766;2023-08-08T11:11:52;4.00;;;2.10;;
59974;SDS011;62136;-35.664;-63.766;2023-08-08T11:14:20;3.88;;;2.33;;
59974;SDS011;62136;-35.664;-63.766;2023-08-08T11:16:49;5.03;;;2.03;;
59974;SDS011;62136;-35.664;-63.766;2023-08-08T11:19:17;3.53;;;1.98;;
59974;SDS011;62136;-35.664;-63.766;2023-08-08T11:21:48;3.90;;;2.15;;
59974;SDS011;62136;-35.664;-63.766;2023-08-08T11:24:15;3.60;;;2.10;;
59974;SDS011;62136;-35.664;-63.766;2023-08-08T11:26:43;4.15;;;1.98;;
59974;SDS011;62136;-35.664;-63.766;2023-08-08T11:29:12;3.63;;;2.13;;
59974;SDS011;62136;-35.664;-63.766;2023-08-08T11:31:39;6.30;;;2.53;;
59974;SDS011;62136;-35.664;-63.766;2023-08-08T11:34:07;5.97;;;2.40;;
59974;SDS011;62136;-35.664;-63.766;2023-08-08T11:36:38;5.45;;;2.30;;
59974;SDS011;62136;-35.664;-63.766;2023-08-08T11:39:05;4.80;;;2.10;;
59974;SDS011;62136;-35.664;-63.766;2023-08-08T11:41:35;7.97;;;2.50;;
59974;SDS011;62136;-35.664;-63.766;2023-08-08T11:44:03;4.00;;;2.20;;
59974;SDS011;62136;-35.664;-63.766;2023-08-08T11:46:33;5.47;;;2.42;;
59974;SDS011;62136;-35.664;-63.766;2023-08-08T11:49:04;5.57;;;2.30;;
59974;SDS011;62136;-35.664;-63.766;2023-08-08T11:51:32;5.75;;;2.70;;
59974;SDS011;62136;-35.664;-63.766;2023-08-08T11:54:00;7.22;;;2.55;;
59974;SDS011;62136;-35.664;-63.766;2023-08-08T11:56:32;4.45;;;1.90;;
59974;SDS011;62136;-35.664;-63.766;2023-08-08T11:59:00;3.70;;;2.20;;
59974;SDS011;62136;-35.664;-63.766;2023-08-08T12:01:30;5.85;;;2.20;;
59974;SDS011;62136;-35.664;-63.766;2023-08-08T12:04:04;4.13;;;2.45;;
59974;SDS011;62136;-35.664;-63.766;2023-08-08T12:06:32;6.40;;;2.53;;
59974;SDS011;62136;-35.664;-63.766;2023-08-08T12:09:03;3.72;;;2.00;;
59974;SDS011;62136;-35.664;-63.766;2023-08-08T12:11:34;6.65;;;2.50;;
59974;SDS011;62136;-35.664;-63.766;2023-08-08T12:14:02;5.00;;;2.08;;
59974;SDS011;62136;-35.664;-63.766;2023-08-08T12:16:29;6.55;;;2.40;;
59974;SDS011;62136;-35.664;-63.766;2023-08-08T12:18:56;5.28;;;2.40;;
59974;SDS011;62136;-35.664;-63.766;2023-08-08T12:21:23;5.25;;;2.50;;
59974;SDS011;62136;-35.664;-63.766;2023-08-08T12:23:51;5.63;;;2.33;;
59974;SDS011;62136;-35.664;-63.766;2023-08-08T12:26:18;4.20;;;2.25;;
59974;SDS011;62136;-35.664;-63.766;2023-08-08T12:28:45;6.40;;;2.70;;
59974;SDS011;62136;-35.664;-63.766;2023-08-08T12:31:12;4.97;;;2.20;;
59974;SDS011;62136;-35.664;-63.766;2023-08-08T12:33:39;4.93;;;2.65;;
59974;SDS011;62136;-35.664;-63.766;2023-08-08T12:36:11;8.10;;;2.78;;
59974;SDS011;62136;-35.664;-63.766;2023-08-08T12:38:38;7.30;;;3.15;;
59974;SDS011;62136;-35.664;-63.766;2023-08-08T12:41:05;5.47;;;2.75;;
59974;SDS011;62136;-35.664;-63.766;2023-08-08T12:43:33;8.68;;;3.05;;
59974;SDS011;62136;-35.664;-63.766;2023-08-08T12:46:00;8.45;;;3.28;;
59974;SDS011;62136;-35.664;-63.766;2023-08-08T12:48:27;6.70;;;2.28;;
59974;SDS011;62136;-35.664;-63.766;2023-08-08T12:50:54;5.00;;;2.63;;
59974;SDS011;62136;-35.664;-63.766;2023-08-08T12:53:21;5.60;;;2.28;;
59974;SDS011;62136;-35.664;-63.766;2023-08-08T12:55:48;4.80;;;2.42;;
59974;SDS011;62136;-35.664;-63.766;2023-08-08T12:58:14;9.02;;;2.85;;
59974;SDS011;62136;-35.664;-63.766;2023-08-08T13:00:42;6.85;;;2.60;;
59974;SDS011;62136;-35.664;-63.766;2023-08-08T13:03:10;6.72;;;2.45;;
59974;SDS011;62136;-35.664;-63.766;2023-08-08T13:05:38;5.85;;;2.40;;
59974;SDS011;62136;-35.664;-63.766;2023-08-08T13:08:05;4.90;;;2.40;;
59974;SDS011;62136;-35.664;-63.766;2023-08-08T13:10:32;5.72;;;2.40;;
59974;SDS011;62136;-35.664;-63.766;2023-08-08T13:12:59;7.10;;;2.45;;
59974;SDS011;62136;-35.664;-63.766;2023-08-08T13:15:26;6.45;;;2.67;;
59974;SDS011;62136;-35.664;-63.766;2023-08-08T13:17:53;7.65;;;2.60;;
59974;SDS011;62136;-35.664;-63.766;2023-08-08T13:20:20;5.53;;;2.70;;
59974;SDS011;62136;-35.664;-63.766;2023-08-08T13:22:47;8.50;;;2.88;;
59974;SDS011;62136;-35.664;-63.766;2023-08-08T13:25:14;7.43;;;2.88;;
59974;SDS011;62136;-35.664;-63.766;2023-08-08T13:27:44;8.88;;;3.03;;
59974;SDS011;62136;-35.664;-63.766;2023-08-08T13:30:13;7.82;;;3.13;;
59974;SDS011;62136;-35.664;-63.766;2023-08-08T13:32:46;7.18;;;2.95;;
59974;SDS011;62136;-35.664;-63.766;2023-08-08T13:35:13;7.03;;;2.75;;
59974;SDS011;62136;-35.664;-63.766;2023-08-08T13:37:40;7.47;;;2.83;;
59974;SDS011;62136;-35.664;-63.766;2023-08-08T13:40:07;6.95;;;3.08;;
59974;SDS011;62136;-35.664;-63.766;2023-08-08T13:42:37;7.70;;;2.60;;
59974;SDS011;62136;-35.664;-63.766;2023-08-08T13:45:06;10.80;;;3.03;;
59974;SDS011;62136;-35.664;-63.766;2023-08-08T13:47:34;7.55;;;3.15;;
59974;SDS011;62136;-35.664;-63.766;2023-08-08T13:50:24;7.05;;;2.75;;
59974;SDS011;62136;-35.664;-63.766;2023-08-08T13:52:58;6.70;;;2.67;;
59974;SDS011;62136;-35.664;-63.766;2023-08-08T13:55:25;7.70;;;2.92;;
59974;SDS011;62136;-35.664;-63.766;2023-08-08T13:57:57;5.30;;;2.30;;
59974;SDS011;62136;-35.664;-63.766;2023-08-08T14:02:55;7.57;;;2.90;;
59974;SDS011;62136;-35.664;-63.766;2023-08-08T14:05:24;6.25;;;2.80;;
59974;SDS011;62136;-35.664;-63.766;2023-08-08T14:07:54;8.77;;;3.10;;
59974;SDS011;62136;-35.664;-63.766;2023-08-08T14:10:23;6.57;;;2.80;;
59974;SDS011;62136;-35.664;-63.766;2023-08-08T14:12:57;9.98;;;3.53;;
59974;SDS011;62136;-35.664;-63.766;2023-08-08T14:15:28;5.75;;;2.63;;
59974;SDS011;62136;-35.664;-63.766;2023-08-08T14:17:56;7.00;;;2.63;;
59974;SDS011;62136;-35.664;-63.766;2023-08-08T14:20:23;6.28;;;2.55;;
59974;SDS011;62136;-35.664;-63.766;2023-08-08T14:22:50;8.65;;;2.60;;